sensor_id;sensor_type;location;lat;lon;timestamp;P1;durP1;ratioP1;P2;durP2;ratioP2
51491;SDS011;37569;50.548;8.778;2023-05-15T00:04:43;8.9;;;8;;
51491;SDS011;37569;50.548;8.778;2023-05-15T00:09:44;9.6;;;8.5;;
51491;SDS011;37569;50.548;8.778;2023-05-15T00:14:44;11.2;;;10.1;;
51491;SDS011;37569;50.548;8.778;2023-05-15T00:19:45;14.5;;;11.8;;
51491;SDS011;37569;50.548;8.778;2023-05-15T00:24:45;13.4;;;12;;
51491;SDS011;37569;50.548;8.778;2023-05-15T00:29:46;14.6;;;13;;
51491;SDS011;37569;50.548;8.778;2023-05-15T00:34:46;17.7;;;13.7;;
51491;SDS011;37569;50.548;8.778;2023-05-15T00:39:47;14.1;;;11.9;;
51491;SDS011;37569;50.548;8.778;2023-05-15T00:44:47;12.1;;;10.8;;
51491;SDS011;37569;50.548;8.778;2023-05-15T00:49:48;11.9;;;10.3;;
51491;SDS011;37569;50.548;8.778;2023-05-15T00:54:48;12;;;10.2;;
51491;SDS011;37569;50.548;8.778;2023-05-15T00:59:48;14.4;;;11.4;;
51491;SDS011;37569;50.548;8.778;2023-05-15T01:04:49;11.1;;;9.9;;
51491;SDS011;37569;50.548;8.778;2023-05-15T01:09:49;10.9;;;9.8;;
51491;SDS011;37569;50.548;8.778;2023-05-15T01:14:50;11.1;;;9.7;;
51491;SDS011;37569;50.548;8.778;2023-05-15T01:19:50;10.9;;;9.8;;
51491;SDS011;37569;50.548;8.778;2023-05-15T01:24:56;10;;;9;;
51491;SDS011;37569;50.548;8.778;2023-05-15T01:29:54;11.2;;;9.8;;
51491;SDS011;37569;50.548;8.778;2023-05-15T01:34:52;11.2;;;10;;
51491;SDS011;37569;50.548;8.778;2023-05-15T01:39:52;11.6;;;10.4;;
51491;SDS011;37569;50.548;8.778;2023-05-15T01:44:53;11.5;;;10.3;;
51491;SDS011;37569;50.548;8.778;2023-05-15T01:49:53;12.6;;;10.9;;
51491;SDS011;37569;50.548;8.778;2023-05-15T01:54:53;13;;;10.9;;
51491;SDS011;37569;50.548;8.778;2023-05-15T01:59:54;13.2;;;11.2;;
51491;SDS011;37569;50.548;8.778;2023-05-15T02:04:54;13.6;;;11.2;;
51491;SDS011;37569;50.548;8.778;2023-05-15T02:09:55;13.3;;;11.1;;
51491;SDS011;37569;50.548;8.778;2023-05-15T02:14:55;12.9;;;11;;
51491;SDS011;37569;50.548;8.778;2023-05-15T02:19:55;13.3;;;11.5;;
51491;SDS011;37569;50.548;8.778;2023-05-15T02:24:56;13.8;;;10.8;;
51491;SDS011;37569;50.548;8.778;2023-05-15T02:30:00;13.6;;;11.1;;
51491;SDS011;37569;50.548;8.778;2023-05-15T02:35:00;10.8;;;9.7;;
51491;SDS011;37569;50.548;8.778;2023-05-15T02:39:57;12.7;;;10.1;;
51491;SDS011;37569;50.548;8.778;2023-05-15T02:44:57;11.4;;;10.2;;
51491;SDS011;37569;50.548;8.778;2023-05-15T02:49:58;12.6;;;10;;
51491;SDS011;37569;50.548;8.778;2023-05-15T02:54:58;13.1;;;11.4;;
51491;SDS011;37569;50.548;8.778;2023-05-15T02:59:59;15.2;;;11.8;;
51491;SDS011;37569;50.548;8.778;2023-05-15T03:04:59;15.4;;;12.6;;
51491;SDS011;37569;50.548;8.778;2023-05-15T03:10:00;16.6;;;12.8;;
51491;SDS011;37569;50.548;8.778;2023-05-15T03:15:00;15.8;;;12.6;;
51491;SDS011;37569;50.548;8.778;2023-05-15T03:20:00;15.4;;;12.8;;
51491;SDS011;37569;50.548;8.778;2023-05-15T03:25:01;13.2;;;11.7;;
51491;SDS011;37569;50.548;8.778;2023-05-15T03:30:01;14.4;;;11.5;;
51491;SDS011;37569;50.548;8.778;2023-05-15T03:35:02;13.9;;;11.4;;
51491;SDS011;37569;50.548;8.778;2023-05-15T03:40:02;13.1;;;11.4;;
51491;SDS011;37569;50.548;8.778;2023-05-15T03:45:03;13;;;11;;
51491;SDS011;37569;50.548;8.778;2023-05-15T03:50:03;14.3;;;11.5;;
51491;SDS011;37569;50.548;8.778;2023-05-15T03:55:04;14.1;;;11.7;;
51491;SDS011;37569;50.548;8.778;2023-05-15T04:00:04;13.5;;;12.1;;
51491;SDS011;37569;50.548;8.778;2023-05-15T04:05:04;16.3;;;12.9;;
51491;SDS011;37569;50.548;8.778;2023-05-15T04:10:05;15.5;;;12.6;;
51491;SDS011;37569;50.548;8.778;2023-05-15T04:15:13;15.6;;;12.3;;
51491;SDS011;37569;50.548;8.778;2023-05-15T04:20:06;12.2;;;10.9;;
51491;SDS011;37569;50.548;8.778;2023-05-15T04:25:06;11.8;;;10.3;;
51491;SDS011;37569;50.548;8.778;2023-05-15T04:30:07;11.5;;;9.4;;
51491;SDS011;37569;50.548;8.778;2023-05-15T04:35:07;12.2;;;9.8;;
51491;SDS011;37569;50.548;8.778;2023-05-15T04:40:08;10.1;;;9;;
51491;SDS011;37569;50.548;8.778;2023-05-15T04:45:08;9.4;;;8.4;;
51491;SDS011;37569;50.548;8.778;2023-05-15T04:50:08;8.5;;;7.3;;
51491;SDS011;37569;50.548;8.778;2023-05-15T04:55:09;9.1;;;7.4;;
51491;SDS011;37569;50.548;8.778;2023-05-15T05:00:09;7.3;;;6.4;;
51491;SDS011;37569;50.548;8.778;2023-05-15T05:05:10;7;;;6.3;;
51491;SDS011;37569;50.548;8.778;2023-05-15T05:10:10;6.9;;;6.2;;
51491;SDS011;37569;50.548;8.778;2023-05-15T05:15:11;7.3;;;6.6;;
51491;SDS011;37569;50.548;8.778;2023-05-15T05:20:11;6.4;;;5.8;;
51491;SDS011;37569;50.548;8.778;2023-05-15T05:25:12;6.3;;;5.7;;
51491;SDS011;37569;50.548;8.778;2023-05-15T05:30:12;5.7;;;5.2;;
51491;SDS011;37569;50.548;8.778;2023-05-15T05:35:13;6.2;;;5;;
51491;SDS011;37569;50.548;8.778;2023-05-15T05:40:14;5.1;;;4.6;;
51491;SDS011;37569;50.548;8.778;2023-05-15T05:45:14;5.7;;;4.2;;
51491;SDS011;37569;50.548;8.778;2023-05-15T05:50:15;4.5;;;4.1;;
51491;SDS011;37569;50.548;8.778;2023-05-15T05:55:16;5.6;;;4.1;;
51491;SDS011;37569;50.548;8.778;2023-05-15T06:00:17;4.8;;;3.8;;
51491;SDS011;37569;50.548;8.778;2023-05-15T06:05:17;4;;;3.6;;
51491;SDS011;37569;50.548;8.778;2023-05-15T06:10:18;4.4;;;4;;
51491;SDS011;37569;50.548;8.778;2023-05-15T06:15:19;4.3;;;3.9;;
51491;SDS011;37569;50.548;8.778;2023-05-15T06:20:20;5.2;;;4.2;;
51491;SDS011;37569;50.548;8.778;2023-05-15T06:25:21;4.9;;;4.2;;
51491;SDS011;37569;50.548;8.778;2023-05-15T06:30:22;4.9;;;3.8;;
51491;SDS011;37569;50.548;8.778;2023-05-15T06:35:22;5;;;3.8;;
51491;SDS011;37569;50.548;8.778;2023-05-15T06:40:23;4.9;;;4.2;;
51491;SDS011;37569;50.548;8.778;2023-05-15T06:45:24;4.4;;;4;;
51491;SDS011;37569;50.548;8.778;2023-05-15T06:50:25;4.6;;;4.1;;
51491;SDS011;37569;50.548;8.778;2023-05-15T06:55:26;4.3;;;3.9;;
51491;SDS011;37569;50.548;8.778;2023-05-15T07:00:27;4.6;;;4.2;;
51491;SDS011;37569;50.548;8.778;2023-05-15T07:05:28;4;;;3.6;;
51491;SDS011;37569;50.548;8.778;2023-05-15T07:10:29;5.6;;;3.9;;
51491;SDS011;37569;50.548;8.778;2023-05-15T07:15:29;5.2;;;3.9;;
51491;SDS011;37569;50.548;8.778;2023-05-15T07:20:30;4.3;;;3.9;;
51491;SDS011;37569;50.548;8.778;2023-05-15T07:25:31;4.2;;;3.8;;
51491;SDS011;37569;50.548;8.778;2023-05-15T07:30:32;5.2;;;3.8;;
51491;SDS011;37569;50.548;8.778;2023-05-15T07:35:33;4;;;3.7;;
51491;SDS011;37569;50.548;8.778;2023-05-15T07:40:34;4.5;;;3.6;;
51491;SDS011;37569;50.548;8.778;2023-05-15T07:45:35;6.7;;;3.9;;
51491;SDS011;37569;50.548;8.778;2023-05-15T07:50:36;4.7;;;3.7;;
51491;SDS011;37569;50.548;8.778;2023-05-15T07:55:36;5.3;;;3.9;;
51491;SDS011;37569;50.548;8.778;2023-05-15T08:00:37;4.9;;;3.4;;
51491;SDS011;37569;50.548;8.778;2023-05-15T08:05:38;4.2;;;3.8;;
51491;SDS011;37569;50.548;8.778;2023-05-15T08:10:39;5.2;;;3.7;;
51491;SDS011;37569;50.548;8.778;2023-05-15T08:15:40;4.5;;;3.5;;
51491;SDS011;37569;50.548;8.778;2023-05-15T08:20:41;4;;;3.6;;
51491;SDS011;37569;50.548;8.778;2023-05-15T08:25:42;7;;;3.8;;
51491;SDS011;37569;50.548;8.778;2023-05-15T08:30:43;5.3;;;3.5;;
51491;SDS011;37569;50.548;8.778;2023-05-15T08:35:44;5;;;3.6;;
51491;SDS011;37569;50.548;8.778;2023-05-15T08:40:45;3.9;;;3.6;;
51491;SDS011;37569;50.548;8.778;2023-05-15T08:45:46;5.2;;;3.8;;
51491;SDS011;37569;50.548;8.778;2023-05-15T08:50:47;4.5;;;3.5;;
51491;SDS011;37569;50.548;8.778;2023-05-15T08:55:48;5.6;;;3.8;;
51491;SDS011;37569;50.548;8.778;2023-05-15T09:00:49;5.1;;;3.4;;
51491;SDS011;37569;50.548;8.778;2023-05-15T09:05:50;4.6;;;3.6;;
51491;SDS011;37569;50.548;8.778;2023-05-15T09:10:51;3.6;;;3.3;;
51491;SDS011;37569;50.548;8.778;2023-05-15T09:15:52;4;;;3.4;;
51491;SDS011;37569;50.548;8.778;2023-05-15T09:20:53;4.6;;;3.6;;
51491;SDS011;37569;50.548;8.778;2023-05-15T09:25:54;4.2;;;3.8;;
51491;SDS011;37569;50.548;8.778;2023-05-15T09:30:56;4.2;;;3.8;;
51491;SDS011;37569;50.548;8.778;2023-05-15T09:35:56;4.6;;;3.9;;
51491;SDS011;37569;50.548;8.778;2023-05-15T09:41:00;5.3;;;4.6;;
51491;SDS011;37569;50.548;8.778;2023-05-15T09:45:58;4.8;;;4.4;;
51491;SDS011;37569;50.548;8.778;2023-05-15T09:50:59;5;;;4.5;;
51491;SDS011;37569;50.548;8.778;2023-05-15T09:56:00;7;;;4.9;;
51491;SDS011;37569;50.548;8.778;2023-05-15T10:01:01;7.5;;;5.7;;
51491;SDS011;37569;50.548;8.778;2023-05-15T10:06:02;6.3;;;5.3;;
51491;SDS011;37569;50.548;8.778;2023-05-15T10:11:03;6.9;;;6.2;;
51491;SDS011;37569;50.548;8.778;2023-05-15T10:16:04;6.8;;;6.1;;
51491;SDS011;37569;50.548;8.778;2023-05-15T10:21:05;8.1;;;6.7;;
51491;SDS011;37569;50.548;8.778;2023-05-15T10:26:07;7.4;;;6.6;;
51491;SDS011;37569;50.548;8.778;2023-05-15T10:31:07;3.4;;;3.1;;
51491;SDS011;37569;50.548;8.778;2023-05-15T10:36:08;4.1;;;2.8;;
51491;SDS011;37569;50.548;8.778;2023-05-15T10:41:08;4.8;;;2.7;;
51491;SDS011;37569;50.548;8.778;2023-05-15T10:46:09;2.7;;;2.5;;
51491;SDS011;37569;50.548;8.778;2023-05-15T10:51:13;3.2;;;2.4;;
51491;SDS011;37569;50.548;8.778;2023-05-15T10:56:12;3;;;2.4;;
51491;SDS011;37569;50.548;8.778;2023-05-15T11:01:23;2.7;;;2.5;;
51491;SDS011;37569;50.548;8.778;2023-05-15T11:06:13;3.2;;;2.3;;
51491;SDS011;37569;50.548;8.778;2023-05-15T11:11:51;3.2;;;2.9;;
51491;SDS011;37569;50.548;8.778;2023-05-15T11:16:16;4;;;2.8;;
51491;SDS011;37569;50.548;8.778;2023-05-15T11:21:15;3.2;;;2.7;;
51491;SDS011;37569;50.548;8.778;2023-05-15T11:26:16;3.5;;;2.9;;
51491;SDS011;37569;50.548;8.778;2023-05-15T11:31:16;3.3;;;3;;
51491;SDS011;37569;50.548;8.778;2023-05-15T11:36:17;3.5;;;2.6;;
51491;SDS011;37569;50.548;8.778;2023-05-15T11:41:19;4.2;;;3.2;;
51491;SDS011;37569;50.548;8.778;2023-05-15T11:46:19;4.7;;;3.4;;
51491;SDS011;37569;50.548;8.778;2023-05-15T11:51:21;3.3;;;3;;
51491;SDS011;37569;50.548;8.778;2023-05-15T11:56:21;3.2;;;2.9;;
51491;SDS011;37569;50.548;8.778;2023-05-15T12:01:22;4.1;;;3.1;;
51491;SDS011;37569;50.548;8.778;2023-05-15T12:06:22;4;;;3.6;;
51491;SDS011;37569;50.548;8.778;2023-05-15T12:11:23;4.8;;;4.3;;
51491;SDS011;37569;50.548;8.778;2023-05-15T12:16:24;5.8;;;5.1;;
51491;SDS011;37569;50.548;8.778;2023-05-15T12:21:25;6.8;;;5.6;;
51491;SDS011;37569;50.548;8.778;2023-05-15T12:26:26;6.9;;;6.2;;
51491;SDS011;37569;50.548;8.778;2023-05-15T12:31:27;7.2;;;5.5;;
51491;SDS011;37569;50.548;8.778;2023-05-15T12:36:28;5.8;;;5.2;;
51491;SDS011;37569;50.548;8.778;2023-05-15T12:41:29;8.1;;;5.6;;
51491;SDS011;37569;50.548;8.778;2023-05-15T12:46:30;5.3;;;4.4;;
51491;SDS011;37569;50.548;8.778;2023-05-15T12:51:31;4.6;;;4.1;;
51491;SDS011;37569;50.548;8.778;2023-05-15T12:56:32;5.5;;;4.3;;
51491;SDS011;37569;50.548;8.778;2023-05-15T13:01:33;4.5;;;4;;
51491;SDS011;37569;50.548;8.778;2023-05-15T13:06:33;4.2;;;3.8;;
51491;SDS011;37569;50.548;8.778;2023-05-15T13:11:34;4.7;;;4.3;;
51491;SDS011;37569;50.548;8.778;2023-05-15T13:16:35;5.1;;;4.3;;
51491;SDS011;37569;50.548;8.778;2023-05-15T13:21:36;4.5;;;4;;
51491;SDS011;37569;50.548;8.778;2023-05-15T13:26:37;4;;;3.6;;
51491;SDS011;37569;50.548;8.778;2023-05-15T13:31:38;4.8;;;3.6;;
51491;SDS011;37569;50.548;8.778;2023-05-15T13:36:39;4.9;;;3.4;;
51491;SDS011;37569;50.548;8.778;2023-05-15T13:41:40;5.5;;;3.7;;
51491;SDS011;37569;50.548;8.778;2023-05-15T13:46:40;4.1;;;3.7;;
51491;SDS011;37569;50.548;8.778;2023-05-15T13:51:41;4.7;;;4;;
51491;SDS011;37569;50.548;8.778;2023-05-15T13:56:42;5.5;;;4.8;;
51491;SDS011;37569;50.548;8.778;2023-05-15T14:01:43;5.9;;;4.6;;
51491;SDS011;37569;50.548;8.778;2023-05-15T14:06:44;5.6;;;4.2;;
51491;SDS011;37569;50.548;8.778;2023-05-15T14:11:45;4.6;;;3.9;;
51491;SDS011;37569;50.548;8.778;2023-05-15T14:16:46;4.8;;;4.1;;
51491;SDS011;37569;50.548;8.778;2023-05-15T14:21:47;4.4;;;3.8;;
51491;SDS011;37569;50.548;8.778;2023-05-15T14:26:47;4.5;;;4.1;;
51491;SDS011;37569;50.548;8.778;2023-05-15T14:31:48;4.9;;;4;;
51491;SDS011;37569;50.548;8.778;2023-05-15T14:36:49;5.8;;;4.9;;
51491;SDS011;37569;50.548;8.778;2023-05-15T14:41:50;7.4;;;5.4;;
51491;SDS011;37569;50.548;8.778;2023-05-15T14:47:03;7.1;;;6.4;;
51491;SDS011;37569;50.548;8.778;2023-05-15T14:51:52;7.4;;;6.1;;
51491;SDS011;37569;50.548;8.778;2023-05-15T14:56:52;8.3;;;6.5;;
51491;SDS011;37569;50.548;8.778;2023-05-15T15:01:53;8.2;;;7;;
51491;SDS011;37569;50.548;8.778;2023-05-15T15:06:54;8.4;;;7.2;;
51491;SDS011;37569;50.548;8.778;2023-05-15T15:11:55;8.3;;;6.7;;
51491;SDS011;37569;50.548;8.778;2023-05-15T15:16:56;9;;;6.7;;
51491;SDS011;37569;50.548;8.778;2023-05-15T15:21:57;7.1;;;6.4;;
51491;SDS011;37569;50.548;8.778;2023-05-15T15:26:57;7.6;;;6.9;;
51491;SDS011;37569;50.548;8.778;2023-05-15T15:31:58;9.6;;;7;;
51491;SDS011;37569;50.548;8.778;2023-05-15T15:36:59;8;;;6.9;;
51491;SDS011;37569;50.548;8.778;2023-05-15T15:42:00;8.2;;;7.3;;
51491;SDS011;37569;50.548;8.778;2023-05-15T15:47:01;8.2;;;7.4;;
51491;SDS011;37569;50.548;8.778;2023-05-15T15:52:02;8.4;;;7.2;;
51491;SDS011;37569;50.548;8.778;2023-05-15T15:57:02;8.4;;;7.3;;
51491;SDS011;37569;50.548;8.778;2023-05-15T16:02:03;8.7;;;7.8;;
51491;SDS011;37569;50.548;8.778;2023-05-15T16:07:04;8.2;;;7.4;;
51491;SDS011;37569;50.548;8.778;2023-05-15T16:12:05;9.3;;;7.2;;
51491;SDS011;37569;50.548;8.778;2023-05-15T16:17:05;8.5;;;7.2;;
51491;SDS011;37569;50.548;8.778;2023-05-15T16:22:06;7.7;;;6.9;;
51491;SDS011;37569;50.548;8.778;2023-05-15T16:27:07;7.8;;;7;;
51491;SDS011;37569;50.548;8.778;2023-05-15T16:32:08;7.5;;;6.8;;
51491;SDS011;37569;50.548;8.778;2023-05-15T16:37:08;7;;;6.3;;
51491;SDS011;37569;50.548;8.778;2023-05-15T16:42:09;7.4;;;6.7;;
51491;SDS011;37569;50.548;8.778;2023-05-15T16:47:10;9.9;;;6.6;;
51491;SDS011;37569;50.548;8.778;2023-05-15T16:52:11;13.3;;;7.9;;
51491;SDS011;37569;50.548;8.778;2023-05-15T16:57:11;9;;;6.5;;
51491;SDS011;37569;50.548;8.778;2023-05-15T17:02:12;7.5;;;6.7;;
51491;SDS011;37569;50.548;8.778;2023-05-15T17:07:13;7.7;;;6.3;;
51491;SDS011;37569;50.548;8.778;2023-05-15T17:12:14;8;;;7.2;;
51491;SDS011;37569;50.548;8.778;2023-05-15T17:17:14;7.9;;;6.9;;
51491;SDS011;37569;50.548;8.778;2023-05-15T17:22:15;8.5;;;6.6;;
51491;SDS011;37569;50.548;8.778;2023-05-15T17:27:16;7.9;;;7.1;;
51491;SDS011;37569;50.548;8.778;2023-05-15T17:32:17;7.9;;;7.1;;
51491;SDS011;37569;50.548;8.778;2023-05-15T17:37:17;9.8;;;7.4;;
51491;SDS011;37569;50.548;8.778;2023-05-15T17:42:18;8.5;;;7.6;;
51491;SDS011;37569;50.548;8.778;2023-05-15T17:47:19;8.5;;;7.3;;
51491;SDS011;37569;50.548;8.778;2023-05-15T17:52:20;9;;;8.1;;
51491;SDS011;37569;50.548;8.778;2023-05-15T17:57:20;9.3;;;8.1;;
51491;SDS011;37569;50.548;8.778;2023-05-15T18:02:21;8.8;;;7.9;;
51491;SDS011;37569;50.548;8.778;2023-05-15T18:07:22;8.7;;;7.9;;
51491;SDS011;37569;50.548;8.778;2023-05-15T18:12:22;8.7;;;7.9;;
51491;SDS011;37569;50.548;8.778;2023-05-15T18:17:23;8.8;;;7.9;;
51491;SDS011;37569;50.548;8.778;2023-05-15T18:22:24;10.2;;;8.2;;
51491;SDS011;37569;50.548;8.778;2023-05-15T18:27:25;9.1;;;8.2;;
51491;SDS011;37569;50.548;8.778;2023-05-15T18:32:25;8.9;;;7.9;;
51491;SDS011;37569;50.548;8.778;2023-05-15T18:37:26;9.6;;;8.2;;
51491;SDS011;37569;50.548;8.778;2023-05-15T18:42:27;9.5;;;8.5;;
51491;SDS011;37569;50.548;8.778;2023-05-15T18:47:27;9.6;;;8.7;;
51491;SDS011;37569;50.548;8.778;2023-05-15T18:52:28;9;;;8.1;;
51491;SDS011;37569;50.548;8.778;2023-05-15T18:57:29;9.7;;;8.7;;
51491;SDS011;37569;50.548;8.778;2023-05-15T19:02:29;9.9;;;8.6;;
51491;SDS011;37569;50.548;8.778;2023-05-15T19:07:30;9.7;;;8.8;;
51491;SDS011;37569;50.548;8.778;2023-05-15T19:12:31;10.3;;;9.3;;
51491;SDS011;37569;50.548;8.778;2023-05-15T19:17:32;10.1;;;9.1;;
51491;SDS011;37569;50.548;8.778;2023-05-15T19:22:32;10.7;;;9;;
51491;SDS011;37569;50.548;8.778;2023-05-15T19:27:33;10.5;;;9.5;;
51491;SDS011;37569;50.548;8.778;2023-05-15T19:32:34;10.9;;;9.9;;
51491;SDS011;37569;50.548;8.778;2023-05-15T19:37:34;10.9;;;9.8;;
51491;SDS011;37569;50.548;8.778;2023-05-15T19:42:35;10.7;;;9.7;;
51491;SDS011;37569;50.548;8.778;2023-05-15T19:47:35;12.6;;;10.5;;
51491;SDS011;37569;50.548;8.778;2023-05-15T19:52:36;11;;;8.9;;
51491;SDS011;37569;50.548;8.778;2023-05-15T19:57:37;10.5;;;9.4;;
51491;SDS011;37569;50.548;8.778;2023-05-15T20:02:37;11.6;;;10;;
51491;SDS011;37569;50.548;8.778;2023-05-15T20:07:38;11.8;;;10.6;;
51491;SDS011;37569;50.548;8.778;2023-05-15T20:12:39;12.7;;;11.3;;
51491;SDS011;37569;50.548;8.778;2023-05-15T20:17:40;14.4;;;12.9;;
51491;SDS011;37569;50.548;8.778;2023-05-15T20:22:41;14;;;12.3;;
51491;SDS011;37569;50.548;8.778;2023-05-15T20:27:41;15.5;;;13;;
51491;SDS011;37569;50.548;8.778;2023-05-15T20:32:41;13.4;;;12.1;;
51491;SDS011;37569;50.548;8.778;2023-05-15T20:37:42;13.7;;;12.4;;
51491;SDS011;37569;50.548;8.778;2023-05-15T20:42:43;12.7;;;11.4;;
51491;SDS011;37569;50.548;8.778;2023-05-15T20:47:43;12.9;;;11.7;;
51491;SDS011;37569;50.548;8.778;2023-05-15T20:52:44;13.8;;;11.8;;
51491;SDS011;37569;50.548;8.778;2023-05-15T20:57:45;13.1;;;11.8;;
51491;SDS011;37569;50.548;8.778;2023-05-15T21:02:45;14.4;;;12.4;;
51491;SDS011;37569;50.548;8.778;2023-05-15T21:07:46;13.4;;;11.9;;
51491;SDS011;37569;50.548;8.778;2023-05-15T21:12:46;13.1;;;11.4;;
51491;SDS011;37569;50.548;8.778;2023-05-15T21:17:47;13.1;;;11.8;;
51491;SDS011;37569;50.548;8.778;2023-05-15T21:22:48;13.4;;;12;;
51491;SDS011;37569;50.548;8.778;2023-05-15T21:27:48;13.9;;;12.5;;
51491;SDS011;37569;50.548;8.778;2023-05-15T21:32:49;14.9;;;13.4;;
51491;SDS011;37569;50.548;8.778;2023-05-15T21:37:49;16.4;;;14.6;;
51491;SDS011;37569;50.548;8.778;2023-05-15T21:42:50;16.7;;;14.9;;
51491;SDS011;37569;50.548;8.778;2023-05-15T21:47:51;16.1;;;14.5;;
51491;SDS011;37569;50.548;8.778;2023-05-15T21:52:51;16.9;;;14.7;;
51491;SDS011;37569;50.548;8.778;2023-05-15T21:57:52;16.8;;;15;;
51491;SDS011;37569;50.548;8.778;2023-05-15T22:02:52;18.1;;;15.6;;
51491;SDS011;37569;50.548;8.778;2023-05-15T22:07:53;17.4;;;15.5;;
51491;SDS011;37569;50.548;8.778;2023-05-15T22:12:53;19.1;;;17.1;;
51491;SDS011;37569;50.548;8.778;2023-05-15T22:17:54;21.5;;;17;;
51491;SDS011;37569;50.548;8.778;2023-05-15T22:22:55;18.5;;;16.5;;
51491;SDS011;37569;50.548;8.778;2023-05-15T22:27:55;20;;;16.6;;
51491;SDS011;37569;50.548;8.778;2023-05-15T22:32:56;18.9;;;16.4;;
51491;SDS011;37569;50.548;8.778;2023-05-15T22:37:56;18.8;;;16.8;;
51491;SDS011;37569;50.548;8.778;2023-05-15T22:42:57;18.3;;;15.6;;
51491;SDS011;37569;50.548;8.778;2023-05-15T22:47:57;20;;;15.6;;
51491;SDS011;37569;50.548;8.778;2023-05-15T22:52:58;18.3;;;15.7;;
51491;SDS011;37569;50.548;8.778;2023-05-15T22:57:59;18.3;;;14.9;;
51491;SDS011;37569;50.548;8.778;2023-05-15T23:02:59;17.6;;;15.3;;
51491;SDS011;37569;50.548;8.778;2023-05-15T23:08:00;18.7;;;16.1;;
51491;SDS011;37569;50.548;8.778;2023-05-15T23:13:00;17.2;;;15.1;;
51491;SDS011;37569;50.548;8.778;2023-05-15T23:18:01;17.2;;;14.9;;
51491;SDS011;37569;50.548;8.778;2023-05-15T23:23:01;18.3;;;15.3;;
51491;SDS011;37569;50.548;8.778;2023-05-15T23:28:02;20.8;;;15.5;;
51491;SDS011;37569;50.548;8.778;2023-05-15T23:33:02;17.9;;;15.7;;
51491;SDS011;37569;50.548;8.778;2023-05-15T23:38:03;21.9;;;16.4;;
51491;SDS011;37569;50.548;8.778;2023-05-15T23:43:03;22.2;;;17.2;;
51491;SDS011;37569;50.548;8.778;2023-05-15T23:48:04;22.6;;;17.6;;
51491;SDS011;37569;50.548;8.778;2023-05-15T23:53:04;22.3;;;18;;
51491;SDS011;37569;50.548;8.778;2023-05-15T23:58:05;24.5;;;18.6;;
